Casino Airport


Codes: YCAS/CSI
Name: Casino Airport
City:
Country: Australia
Elevation: 86 ft.

Photos at Casino Airport


   Photos courtesy of SpottingLog. You can add your own sightings and photos by signing up for a free trial today.



No photos found.

Weather at Casino Airport


Time (UTC)DescriptionTempratureWindCloud coverageVisibilityPressureHumidity
25-Jun-2024 15:00Overcast Clouds14°C2 mph, W100%10000m1023hPa96%
25-Jun-2024 18:00Overcast Clouds12°C2 mph, NW100%10000m1023hPa96%
25-Jun-2024 21:00Few Clouds11°C2 mph, NW14%10000m1024hPa96%
26-Jun-2024 00:00Scattered Clouds19°C2 mph, NW26%10000m1024hPa66%
26-Jun-2024 03:00Clear Sky23°C4 mph, N7%10000m1020hPa50%
26-Jun-2024 06:00Few Clouds21°C2 mph, NE18%10000m1019hPa63%
26-Jun-2024 09:00Clear Sky15°C2 mph, NE1%10000m1021hPa88%
26-Jun-2024 12:00Clear Sky13°C2 mph, NW7%10000m1022hPa88%
26-Jun-2024 15:00Broken Clouds13°C2 mph, NW54%10000m1021hPa89%
26-Jun-2024 18:00Broken Clouds15°C2 mph, NW77%10000m1021hPa78%
26-Jun-2024 21:00Light Rain14°C2 mph, SW98%10000m1021hPa93%
27-Jun-2024 00:00Light Rain16°C4 mph, W99%10000m1023hPa91%
27-Jun-2024 03:00Light Rain21°C7 mph, NW53%10000m1019hPa74%
27-Jun-2024 06:00Light Rain21°C4 mph, N28%10000m1018hPa76%
27-Jun-2024 09:00Light Rain15°C2 mph, NW0%10000m1020hPa94%
27-Jun-2024 12:00Clear Sky13°C4 mph, SW0%10000m1022hPa97%
27-Jun-2024 15:00Scattered Clouds13°C4 mph, W30%10000m1022hPa96%
27-Jun-2024 18:00Broken Clouds14°C2 mph, SW57%10000m1023hPa95%
27-Jun-2024 21:00Light Rain14°C2 mph, SW98%10000m1025hPa96%
28-Jun-2024 00:00Overcast Clouds15°C2 mph, SW99%10000m1026hPa86%
28-Jun-2024 03:00Overcast Clouds17°C4 mph, S100%10000m1024hPa73%
28-Jun-2024 06:00Broken Clouds18°C2 mph, SE63%10000m1024hPa72%
28-Jun-2024 09:00Clear Sky12°C2 mph, SW9%10000m1025hPa93%
28-Jun-2024 12:00Clear Sky11°C2 mph, SW3%10000m1025hPa96%
28-Jun-2024 15:00Clear Sky10°C2 mph, SW5%10000m1025hPa96%
28-Jun-2024 18:00Clear Sky10°C2 mph, NW9%10000m1025hPa96%
28-Jun-2024 21:00Clear Sky10°C2 mph, NW0%10000m1026hPa96%
29-Jun-2024 00:00Clear Sky17°C2 mph, NW0%10000m1025hPa67%
29-Jun-2024 03:00Clear Sky21°C2 mph, N0%10000m1022hPa53%
29-Jun-2024 06:00Clear Sky19°C4 mph, E0%10000m1021hPa66%
29-Jun-2024 09:00Broken Clouds14°C2 mph, NE79%10000m1022hPa81%
29-Jun-2024 12:00Scattered Clouds12°C4 mph, N40%10000m1023hPa93%
29-Jun-2024 15:00Clear Sky11°C2 mph, NW1%10000m1022hPa95%
29-Jun-2024 18:00Clear Sky11°C4 mph, NW0%10000m1021hPa96%
29-Jun-2024 21:00Clear Sky11°C4 mph, N0%10000m1022hPa95%
30-Jun-2024 00:00Few Clouds20°C7 mph, NW16%10000m1021hPa65%
30-Jun-2024 03:00Clear Sky24°C9 mph, NW0%10000m1017hPa51%
30-Jun-2024 06:00Clear Sky22°C11 mph, N0%10000m1015hPa60%
30-Jun-2024 09:00Few Clouds16°C4 mph, N18%10000m1016hPa82%
30-Jun-2024 12:00Broken Clouds16°C4 mph, W59%10000m1017hPa83%